sensor_id;sensor_type;location;lat;lon;timestamp;pressure;altitude;pressure_sealevel;temperature;humidity
13434;BME280;6789;47.678;9.158;2023-06-26T00:02:57;96806.31;;;19.82;73.21
13434;BME280;6789;47.678;9.158;2023-06-26T00:07:49;96807.72;;;19.74;74.62
13434;BME280;6789;47.678;9.158;2023-06-26T00:12:41;96813.88;;;19.75;74.61
13434;BME280;6789;47.678;9.158;2023-06-26T00:17:32;96822.97;;;19.64;75.41
13434;BME280;6789;47.678;9.158;2023-06-26T00:22:28;96816.97;;;19.48;76.48
13434;BME280;6789;47.678;9.158;2023-06-26T00:27:20;96809.81;;;19.44;75.35
13434;BME280;6789;47.678;9.158;2023-06-26T00:32:12;96812.00;;;19.42;75.77
13434;BME280;6789;47.678;9.158;2023-06-26T00:37:04;96818.41;;;19.36;76.97
13434;BME280;6789;47.678;9.158;2023-06-26T00:41:55;96821.63;;;19.33;78.60
13434;BME280;6789;47.678;9.158;2023-06-26T00:46:48;96826.06;;;19.42;76.86
13434;BME280;6789;47.678;9.158;2023-06-26T00:51:40;96824.84;;;19.30;78.29
13434;BME280;6789;47.678;9.158;2023-06-26T00:56:32;96827.06;;;19.18;78.99
13434;BME280;6789;47.678;9.158;2023-06-26T01:01:24;96838.25;;;19.05;80.29
13434;BME280;6789;47.678;9.158;2023-06-26T01:06:20;96834.28;;;19.03;81.41
13434;BME280;6789;47.678;9.158;2023-06-26T01:11:13;96831.88;;;19.01;82.09
13434;BME280;6789;47.678;9.158;2023-06-26T01:16:06;96832.22;;;18.90;82.79
13434;BME280;6789;47.678;9.158;2023-06-26T01:20:58;96831.44;;;18.84;83.39
13434;BME280;6789;47.678;9.158;2023-06-26T01:31:00;96832.59;;;18.68;85.07
13434;BME280;6789;47.678;9.158;2023-06-26T01:35:52;96827.03;;;18.65;85.70
13434;BME280;6789;47.678;9.158;2023-06-26T01:40:45;96826.78;;;18.62;86.00
13434;BME280;6789;47.678;9.158;2023-06-26T01:45:39;96831.81;;;18.58;86.04
13434;BME280;6789;47.678;9.158;2023-06-26T01:50:33;96834.25;;;18.50;86.59
13434;BME280;6789;47.678;9.158;2023-06-26T01:55:52;96845.16;;;18.43;87.75
13434;BME280;6789;47.678;9.158;2023-06-26T02:00:46;96832.66;;;18.39;88.84
13434;BME280;6789;47.678;9.158;2023-06-26T02:05:38;96849.69;;;18.43;89.11
13434;BME280;6789;47.678;9.158;2023-06-26T02:10:30;96850.47;;;18.43;89.37
13434;BME280;6789;47.678;9.158;2023-06-26T02:15:22;96848.09;;;18.37;90.75
13434;BME280;6789;47.678;9.158;2023-06-26T02:20:17;96845.44;;;18.37;91.13
13434;BME280;6789;47.678;9.158;2023-06-26T02:25:10;96835.13;;;18.20;92.52
13434;BME280;6789;47.678;9.158;2023-06-26T02:30:02;96843.06;;;18.15;92.92
13434;BME280;6789;47.678;9.158;2023-06-26T02:34:54;96838.56;;;18.06;93.95
13434;BME280;6789;47.678;9.158;2023-06-26T02:39:46;96847.06;;;18.03;94.85
13434;BME280;6789;47.678;9.158;2023-06-26T02:44:38;96835.69;;;17.97;96.17
13434;BME280;6789;47.678;9.158;2023-06-26T02:49:29;96836.19;;;17.94;96.67
13434;BME280;6789;47.678;9.158;2023-06-26T02:54:21;96847.59;;;17.90;97.74
13434;BME280;6789;47.678;9.158;2023-06-26T02:59:13;96848.66;;;17.89;98.95
13434;BME280;6789;47.678;9.158;2023-06-26T03:04:05;96847.09;;;17.88;100.00
13434;BME280;6789;47.678;9.158;2023-06-26T03:08:57;96849.47;;;17.89;100.00
13434;BME280;6789;47.678;9.158;2023-06-26T03:13:48;96852.91;;;17.85;100.00
13434;BME280;6789;47.678;9.158;2023-06-26T03:18:40;96857.72;;;17.88;100.00
13434;BME280;6789;47.678;9.158;2023-06-26T03:23:32;96867.50;;;17.88;100.00
13434;BME280;6789;47.678;9.158;2023-06-26T03:28:24;96869.66;;;17.86;100.00
13434;BME280;6789;47.678;9.158;2023-06-26T03:33:16;96872.28;;;18.00;100.00
13434;BME280;6789;47.678;9.158;2023-06-26T03:38:07;96881.84;;;18.06;100.00
13434;BME280;6789;47.678;9.158;2023-06-26T03:42:59;96868.31;;;17.98;100.00
13434;BME280;6789;47.678;9.158;2023-06-26T03:47:51;96870.97;;;17.93;100.00
13434;BME280;6789;47.678;9.158;2023-06-26T03:52:43;96880.53;;;17.94;100.00
13434;BME280;6789;47.678;9.158;2023-06-26T03:57:34;96883.63;;;18.61;100.00
13434;BME280;6789;47.678;9.158;2023-06-26T04:02:26;96873.50;;;19.69;93.45
13434;BME280;6789;47.678;9.158;2023-06-26T04:07:19;96869.28;;;20.81;86.34
13434;BME280;6789;47.678;9.158;2023-06-26T04:12:11;96869.59;;;21.76;80.79
13434;BME280;6789;47.678;9.158;2023-06-26T04:17:03;96871.34;;;23.03;73.40
13434;BME280;6789;47.678;9.158;2023-06-26T04:21:55;96873.38;;;23.68;69.80
13434;BME280;6789;47.678;9.158;2023-06-26T04:26:46;96877.97;;;24.55;65.64
13434;BME280;6789;47.678;9.158;2023-06-26T04:31:39;96877.78;;;25.29;61.60
13434;BME280;6789;47.678;9.158;2023-06-26T04:36:31;96890.19;;;25.97;58.92
13434;BME280;6789;47.678;9.158;2023-06-26T04:41:25;96887.19;;;26.70;56.21
13434;BME280;6789;47.678;9.158;2023-06-26T04:47:07;96880.38;;;27.18;54.16
13434;BME280;6789;47.678;9.158;2023-06-26T04:52:25;96881.03;;;28.05;50.73
13434;BME280;6789;47.678;9.158;2023-06-26T04:57:31;96883.22;;;28.88;48.90
13434;BME280;6789;47.678;9.158;2023-06-26T05:02:23;96875.91;;;29.00;48.34
13434;BME280;6789;47.678;9.158;2023-06-26T05:07:15;96867.56;;;29.05;47.82
13434;BME280;6789;47.678;9.158;2023-06-26T05:12:07;96876.09;;;29.55;46.22
13434;BME280;6789;47.678;9.158;2023-06-26T05:16:59;96873.69;;;29.77;46.11
13434;BME280;6789;47.678;9.158;2023-06-26T05:21:52;96874.91;;;29.80;46.66
13434;BME280;6789;47.678;9.158;2023-06-26T05:27:03;96874.41;;;29.74;46.26
13434;BME280;6789;47.678;9.158;2023-06-26T05:32:10;96881.41;;;30.57;44.19
13434;BME280;6789;47.678;9.158;2023-06-26T05:37:28;96880.06;;;31.10;42.53
13434;BME280;6789;47.678;9.158;2023-06-26T05:42:21;96877.88;;;30.84;42.96
13434;BME280;6789;47.678;9.158;2023-06-26T05:47:12;96880.75;;;31.53;41.83
13434;BME280;6789;47.678;9.158;2023-06-26T05:52:05;96874.06;;;31.66;40.08
13434;BME280;6789;47.678;9.158;2023-06-26T05:57:20;96879.41;;;31.62;40.16
13434;BME280;6789;47.678;9.158;2023-06-26T06:02:40;96883.22;;;31.12;39.90
13434;BME280;6789;47.678;9.158;2023-06-26T06:07:57;96884.34;;;30.95;41.45
13434;BME280;6789;47.678;9.158;2023-06-26T06:12:49;96886.13;;;31.03;39.51
13434;BME280;6789;47.678;9.158;2023-06-26T06:17:40;96885.94;;;31.12;39.61
13434;BME280;6789;47.678;9.158;2023-06-26T06:22:36;96884.47;;;31.48;39.08
13434;BME280;6789;47.678;9.158;2023-06-26T06:27:32;96888.16;;;30.79;41.04
13434;BME280;6789;47.678;9.158;2023-06-26T06:32:28;96884.91;;;30.31;42.04
13434;BME280;6789;47.678;9.158;2023-06-26T06:37:20;96878.00;;;29.66;43.81
13434;BME280;6789;47.678;9.158;2023-06-26T06:42:12;96870.06;;;29.10;44.67
13434;BME280;6789;47.678;9.158;2023-06-26T06:47:04;96861.97;;;28.98;45.40
13434;BME280;6789;47.678;9.158;2023-06-26T06:51:55;96877.28;;;28.50;46.92
13434;BME280;6789;47.678;9.158;2023-06-26T06:56:47;96881.56;;;27.78;48.70
13434;BME280;6789;47.678;9.158;2023-06-26T07:01:40;96873.13;;;28.00;48.72
13434;BME280;6789;47.678;9.158;2023-06-26T07:06:33;96869.06;;;28.47;47.13
13434;BME280;6789;47.678;9.158;2023-06-26T07:11:41;96878.91;;;28.75;47.14
13434;BME280;6789;47.678;9.158;2023-06-26T07:16:33;96877.13;;;29.63;44.67
13434;BME280;6789;47.678;9.158;2023-06-26T07:21:27;96879.91;;;29.78;43.90
13434;BME280;6789;47.678;9.158;2023-06-26T07:26:37;96876.41;;;29.77;44.34
13434;BME280;6789;47.678;9.158;2023-06-26T07:31:38;96872.22;;;29.80;44.41
13434;BME280;6789;47.678;9.158;2023-06-26T07:36:32;96872.16;;;29.76;43.47
13434;BME280;6789;47.678;9.158;2023-06-26T07:41:34;96872.81;;;29.73;44.14
13434;BME280;6789;47.678;9.158;2023-06-26T07:46:26;96876.25;;;29.86;44.54
13434;BME280;6789;47.678;9.158;2023-06-26T07:51:32;96875.16;;;29.75;44.10
13434;BME280;6789;47.678;9.158;2023-06-26T07:57:04;96868.72;;;30.19;43.25
13434;BME280;6789;47.678;9.158;2023-06-26T08:02:03;96866.47;;;30.21;42.25
13434;BME280;6789;47.678;9.158;2023-06-26T08:07:00;96855.69;;;30.09;43.22
13434;BME280;6789;47.678;9.158;2023-06-26T08:12:06;96861.47;;;30.07;43.20
13434;BME280;6789;47.678;9.158;2023-06-26T08:17:00;96858.88;;;29.99;42.97
13434;BME280;6789;47.678;9.158;2023-06-26T08:21:54;96857.69;;;30.12;43.63
13434;BME280;6789;47.678;9.158;2023-06-26T08:27:23;96857.28;;;30.10;42.78
13434;BME280;6789;47.678;9.158;2023-06-26T08:32:43;96847.56;;;30.09;43.02
13434;BME280;6789;47.678;9.158;2023-06-26T08:38:09;96854.16;;;29.96;43.76
13434;BME280;6789;47.678;9.158;2023-06-26T08:55:21;96856.84;;;30.50;42.83
13434;BME280;6789;47.678;9.158;2023-06-26T09:00:32;96859.41;;;30.74;41.88
13434;BME280;6789;47.678;9.158;2023-06-26T09:06:16;96847.69;;;30.55;42.05
13434;BME280;6789;47.678;9.158;2023-06-26T09:18:41;96845.50;;;30.76;40.96
13434;BME280;6789;47.678;9.158;2023-06-26T09:23:36;96838.34;;;30.68;41.34
13434;BME280;6789;47.678;9.158;2023-06-26T09:28:29;96830.22;;;30.83;40.78
13434;BME280;6789;47.678;9.158;2023-06-26T09:33:21;96836.16;;;31.04;40.05
13434;BME280;6789;47.678;9.158;2023-06-26T09:38:14;96828.97;;;31.27;39.79
13434;BME280;6789;47.678;9.158;2023-06-26T09:43:14;96824.34;;;31.62;39.37
13434;BME280;6789;47.678;9.158;2023-06-26T09:48:11;96828.72;;;31.51;39.37
13434;BME280;6789;47.678;9.158;2023-06-26T09:53:20;96835.84;;;31.40;39.46
13434;BME280;6789;47.678;9.158;2023-06-26T09:58:12;96823.13;;;31.59;39.45
13434;BME280;6789;47.678;9.158;2023-06-26T10:03:27;96811.06;;;31.57;38.28
13434;BME280;6789;47.678;9.158;2023-06-26T10:08:45;96811.28;;;31.67;37.28
13434;BME280;6789;47.678;9.158;2023-06-26T10:13:54;96810.41;;;31.63;37.58
13434;BME280;6789;47.678;9.158;2023-06-26T10:19:08;96808.22;;;31.69;39.78
13434;BME280;6789;47.678;9.158;2023-06-26T10:24:47;96812.34;;;31.82;37.30
13434;BME280;6789;47.678;9.158;2023-06-26T10:30:03;96811.50;;;31.96;35.93
13434;BME280;6789;47.678;9.158;2023-06-26T10:35:12;96811.91;;;31.80;35.56
13434;BME280;6789;47.678;9.158;2023-06-26T10:40:27;96802.72;;;31.65;37.40
13434;BME280;6789;47.678;9.158;2023-06-26T10:45:35;96807.78;;;31.86;36.44
13434;BME280;6789;47.678;9.158;2023-06-26T10:50:50;96802.94;;;31.94;36.69
13434;BME280;6789;47.678;9.158;2023-06-26T10:56:09;96805.47;;;32.25;35.33
13434;BME280;6789;47.678;9.158;2023-06-26T11:02:03;96800.31;;;32.39;35.75
13434;BME280;6789;47.678;9.158;2023-06-26T11:07:24;96799.38;;;32.32;33.76
13434;BME280;6789;47.678;9.158;2023-06-26T11:13:17;96800.00;;;32.44;32.31
13434;BME280;6789;47.678;9.158;2023-06-26T11:19:01;96807.50;;;32.09;33.67
13434;BME280;6789;47.678;9.158;2023-06-26T11:24:17;96789.75;;;32.15;34.43
13434;BME280;6789;47.678;9.158;2023-06-26T11:29:25;96785.34;;;32.26;33.20
13434;BME280;6789;47.678;9.158;2023-06-26T11:34:32;96790.72;;;32.45;31.92
13434;BME280;6789;47.678;9.158;2023-06-26T11:39:49;96794.25;;;32.49;33.27
13434;BME280;6789;47.678;9.158;2023-06-26T11:45:05;96796.25;;;32.71;32.84
13434;BME280;6789;47.678;9.158;2023-06-26T11:50:18;96777.25;;;33.00;33.01
13434;BME280;6789;47.678;9.158;2023-06-26T11:56:15;96783.97;;;33.58;30.87
13434;BME280;6789;47.678;9.158;2023-06-26T12:01:40;96790.09;;;33.51;31.92
13434;BME280;6789;47.678;9.158;2023-06-26T12:06:59;96775.09;;;33.64;31.44
13434;BME280;6789;47.678;9.158;2023-06-26T12:11:55;96775.06;;;33.06;31.07
13434;BME280;6789;47.678;9.158;2023-06-26T12:17:11;96778.00;;;32.97;32.35
13434;BME280;6789;47.678;9.158;2023-06-26T12:22:20;96785.56;;;33.07;31.56
13434;BME280;6789;47.678;9.158;2023-06-26T12:27:26;96780.13;;;33.07;31.45
13434;BME280;6789;47.678;9.158;2023-06-26T12:32:34;96775.75;;;33.03;32.50
13434;BME280;6789;47.678;9.158;2023-06-26T12:37:27;96778.72;;;32.94;33.30
13434;BME280;6789;47.678;9.158;2023-06-26T12:42:25;96779.69;;;32.57;35.11
13434;BME280;6789;47.678;9.158;2023-06-26T12:48:12;96775.25;;;32.27;35.06
13434;BME280;6789;47.678;9.158;2023-06-26T12:53:05;96772.06;;;32.21;35.65
13434;BME280;6789;47.678;9.158;2023-06-26T12:58:11;96758.31;;;32.33;36.20
13434;BME280;6789;47.678;9.158;2023-06-26T13:03:28;96760.16;;;32.74;37.07
13434;BME280;6789;47.678;9.158;2023-06-26T13:08:36;96760.94;;;32.74;36.22
13434;BME280;6789;47.678;9.158;2023-06-26T13:13:53;96755.81;;;33.18;38.58
13434;BME280;6789;47.678;9.158;2023-06-26T13:19:01;96741.41;;;32.91;38.40
13434;BME280;6789;47.678;9.158;2023-06-26T13:24:07;96757.31;;;32.67;37.07
13434;BME280;6789;47.678;9.158;2023-06-26T13:29:14;96748.53;;;33.03;37.78
13434;BME280;6789;47.678;9.158;2023-06-26T13:34:24;96758.19;;;33.23;37.17
13434;BME280;6789;47.678;9.158;2023-06-26T13:39:19;96758.97;;;32.97;37.90
13434;BME280;6789;47.678;9.158;2023-06-26T13:44:11;96756.31;;;33.01;36.33
13434;BME280;6789;47.678;9.158;2023-06-26T13:49:21;96764.81;;;32.99;35.60
13434;BME280;6789;47.678;9.158;2023-06-26T13:54:13;96768.69;;;33.21;35.10
13434;BME280;6789;47.678;9.158;2023-06-26T13:59:20;96770.31;;;33.03;35.82
13434;BME280;6789;47.678;9.158;2023-06-26T14:04:17;96766.94;;;33.09;36.55
13434;BME280;6789;47.678;9.158;2023-06-26T14:09:23;96759.09;;;33.04;37.59
13434;BME280;6789;47.678;9.158;2023-06-26T14:14:29;96761.31;;;32.73;37.76
13434;BME280;6789;47.678;9.158;2023-06-26T14:19:44;96748.75;;;32.91;36.96
13434;BME280;6789;47.678;9.158;2023-06-26T14:24:53;96751.00;;;32.60;38.34
13434;BME280;6789;47.678;9.158;2023-06-26T14:30:06;96760.59;;;32.31;37.18
13434;BME280;6789;47.678;9.158;2023-06-26T14:35:14;96747.44;;;31.92;37.09
13434;BME280;6789;47.678;9.158;2023-06-26T14:40:20;96761.94;;;31.81;36.46
13434;BME280;6789;47.678;9.158;2023-06-26T14:45:26;96754.72;;;31.69;37.82
13434;BME280;6789;47.678;9.158;2023-06-26T14:50:18;96739.78;;;31.79;36.76
13434;BME280;6789;47.678;9.158;2023-06-26T14:55:10;96741.22;;;31.54;39.21
13434;BME280;6789;47.678;9.158;2023-06-26T15:00:28;96728.81;;;31.72;37.59
13434;BME280;6789;47.678;9.158;2023-06-26T15:05:46;96731.28;;;31.99;37.71
13434;BME280;6789;47.678;9.158;2023-06-26T15:10:38;96728.88;;;31.97;37.14
13434;BME280;6789;47.678;9.158;2023-06-26T15:15:44;96730.50;;;31.80;37.07
13434;BME280;6789;47.678;9.158;2023-06-26T15:20:44;96733.72;;;32.04;36.82
13434;BME280;6789;47.678;9.158;2023-06-26T15:25:50;96725.84;;;31.99;38.21
13434;BME280;6789;47.678;9.158;2023-06-26T15:30:41;96715.63;;;31.92;36.94
13434;BME280;6789;47.678;9.158;2023-06-26T15:35:33;96718.03;;;31.56;37.15
13434;BME280;6789;47.678;9.158;2023-06-26T15:40:25;96710.66;;;31.76;37.14
13434;BME280;6789;47.678;9.158;2023-06-26T15:45:17;96710.72;;;31.79;36.62
13434;BME280;6789;47.678;9.158;2023-06-26T15:50:31;96698.69;;;31.58;37.34
13434;BME280;6789;47.678;9.158;2023-06-26T15:55:22;96710.28;;;31.39;37.76
13434;BME280;6789;47.678;9.158;2023-06-26T16:00:22;96694.44;;;31.41;38.23
13434;BME280;6789;47.678;9.158;2023-06-26T16:05:30;96692.06;;;31.55;36.90
13434;BME280;6789;47.678;9.158;2023-06-26T16:10:22;96693.66;;;31.79;37.77
13434;BME280;6789;47.678;9.158;2023-06-26T16:15:15;96678.03;;;31.72;38.09
13434;BME280;6789;47.678;9.158;2023-06-26T16:20:20;96692.81;;;31.75;37.16
13434;BME280;6789;47.678;9.158;2023-06-26T16:25:13;96684.75;;;31.59;36.97
13434;BME280;6789;47.678;9.158;2023-06-26T16:30:06;96682.72;;;31.75;37.88
13434;BME280;6789;47.678;9.158;2023-06-26T16:35:00;96682.56;;;31.65;37.96
13434;BME280;6789;47.678;9.158;2023-06-26T16:39:55;96690.13;;;31.56;37.85
13434;BME280;6789;47.678;9.158;2023-06-26T16:45:01;96683.91;;;31.55;37.88
13434;BME280;6789;47.678;9.158;2023-06-26T16:49:53;96676.16;;;31.38;37.34
13434;BME280;6789;47.678;9.158;2023-06-26T16:54:59;96680.06;;;31.18;38.22
13434;BME280;6789;47.678;9.158;2023-06-26T16:59:51;96678.31;;;31.11;37.77
13434;BME280;6789;47.678;9.158;2023-06-26T17:04:44;96681.84;;;30.96;37.97
13434;BME280;6789;47.678;9.158;2023-06-26T17:09:40;96681.56;;;30.82;38.71
13434;BME280;6789;47.678;9.158;2023-06-26T17:14:31;96689.84;;;30.73;39.06
13434;BME280;6789;47.678;9.158;2023-06-26T17:19:23;96700.03;;;30.61;39.76
13434;BME280;6789;47.678;9.158;2023-06-26T17:24:20;96695.28;;;30.42;39.68
13434;BME280;6789;47.678;9.158;2023-06-26T17:29:14;96703.25;;;30.20;41.09
13434;BME280;6789;47.678;9.158;2023-06-26T17:34:07;96710.44;;;29.85;41.84
13434;BME280;6789;47.678;9.158;2023-06-26T17:38:58;96722.63;;;29.64;42.76
13434;BME280;6789;47.678;9.158;2023-06-26T17:43:52;96731.41;;;29.34;43.90
13434;BME280;6789;47.678;9.158;2023-06-26T17:48:48;96739.13;;;29.08;44.04
13434;BME280;6789;47.678;9.158;2023-06-26T17:53:44;96749.16;;;28.72;44.02
13434;BME280;6789;47.678;9.158;2023-06-26T17:58:39;96756.56;;;28.39;44.11
13434;BME280;6789;47.678;9.158;2023-06-26T18:03:45;96769.16;;;28.23;44.01
13434;BME280;6789;47.678;9.158;2023-06-26T18:08:38;96771.13;;;28.14;45.03
13434;BME280;6789;47.678;9.158;2023-06-26T18:13:45;96781.00;;;28.10;46.12
13434;BME280;6789;47.678;9.158;2023-06-26T18:18:40;96785.69;;;28.01;45.52
13434;BME280;6789;47.678;9.158;2023-06-26T18:23:32;96796.19;;;27.82;44.76
13434;BME280;6789;47.678;9.158;2023-06-26T18:28:24;96799.66;;;27.71;44.82
13434;BME280;6789;47.678;9.158;2023-06-26T18:33:21;96802.53;;;27.66;44.49
13434;BME280;6789;47.678;9.158;2023-06-26T18:38:27;96814.63;;;27.60;45.15
13434;BME280;6789;47.678;9.158;2023-06-26T18:43:19;96828.81;;;27.48;45.40
13434;BME280;6789;47.678;9.158;2023-06-26T18:48:14;96826.97;;;27.41;45.04
13434;BME280;6789;47.678;9.158;2023-06-26T18:53:06;96851.53;;;27.19;44.93
13434;BME280;6789;47.678;9.158;2023-06-26T18:57:59;96852.72;;;27.01;45.67
13434;BME280;6789;47.678;9.158;2023-06-26T19:02:53;96866.53;;;26.91;45.90
13434;BME280;6789;47.678;9.158;2023-06-26T19:07:45;96883.88;;;26.73;46.62
13434;BME280;6789;47.678;9.158;2023-06-26T19:12:36;96889.81;;;26.50;46.64
13434;BME280;6789;47.678;9.158;2023-06-26T19:17:28;96901.53;;;26.28;47.16
13434;BME280;6789;47.678;9.158;2023-06-26T19:22:20;96904.56;;;26.10;46.98
13434;BME280;6789;47.678;9.158;2023-06-26T19:27:12;96915.63;;;26.00;47.05
13434;BME280;6789;47.678;9.158;2023-06-26T19:32:04;96917.06;;;25.81;47.06
13434;BME280;6789;47.678;9.158;2023-06-26T19:36:57;96934.41;;;25.58;47.63
13434;BME280;6789;47.678;9.158;2023-06-26T19:41:49;96942.25;;;25.46;47.23
13434;BME280;6789;47.678;9.158;2023-06-26T19:46:55;96948.25;;;25.26;47.55
13434;BME280;6789;47.678;9.158;2023-06-26T19:51:48;96957.47;;;25.12;47.98
13434;BME280;6789;47.678;9.158;2023-06-26T19:56:41;96969.25;;;25.02;48.39
13434;BME280;6789;47.678;9.158;2023-06-26T20:01:36;96978.34;;;24.84;48.67
13434;BME280;6789;47.678;9.158;2023-06-26T20:06:28;96999.28;;;24.74;48.35
13434;BME280;6789;47.678;9.158;2023-06-26T20:11:20;96992.38;;;24.59;48.93
13434;BME280;6789;47.678;9.158;2023-06-26T20:16:12;97014.69;;;24.47;49.02
13434;BME280;6789;47.678;9.158;2023-06-26T20:21:04;97016.81;;;24.36;48.36
13434;BME280;6789;47.678;9.158;2023-06-26T20:25:56;97028.47;;;24.32;48.52
13434;BME280;6789;47.678;9.158;2023-06-26T20:30:49;97033.13;;;24.26;48.22
13434;BME280;6789;47.678;9.158;2023-06-26T20:35:41;97042.19;;;24.30;47.56
13434;BME280;6789;47.678;9.158;2023-06-26T20:40:33;97042.50;;;24.15;47.91
13434;BME280;6789;47.678;9.158;2023-06-26T20:45:34;97052.44;;;24.15;47.66
13434;BME280;6789;47.678;9.158;2023-06-26T20:50:28;97055.75;;;23.98;47.87
13434;BME280;6789;47.678;9.158;2023-06-26T20:55:22;97050.50;;;23.93;47.86
13434;BME280;6789;47.678;9.158;2023-06-26T21:00:15;97054.84;;;23.89;48.13
13434;BME280;6789;47.678;9.158;2023-06-26T21:05:07;97051.19;;;23.72;48.89
13434;BME280;6789;47.678;9.158;2023-06-26T21:09:59;97055.16;;;23.61;48.91
13434;BME280;6789;47.678;9.158;2023-06-26T21:14:52;97059.31;;;23.54;49.09
13434;BME280;6789;47.678;9.158;2023-06-26T21:19:44;97069.31;;;23.48;49.23
13434;BME280;6789;47.678;9.158;2023-06-26T21:24:36;97073.03;;;23.52;49.60
13434;BME280;6789;47.678;9.158;2023-06-26T21:29:32;97076.78;;;23.65;49.25
13434;BME280;6789;47.678;9.158;2023-06-26T21:34:24;97076.97;;;23.55;48.95
13434;BME280;6789;47.678;9.158;2023-06-26T21:39:16;97081.72;;;23.31;49.34
13434;BME280;6789;47.678;9.158;2023-06-26T21:44:07;97083.13;;;23.28;49.80
13434;BME280;6789;47.678;9.158;2023-06-26T21:48:59;97089.03;;;23.25;49.96
13434;BME280;6789;47.678;9.158;2023-06-26T21:53:52;97093.63;;;23.25;49.37
13434;BME280;6789;47.678;9.158;2023-06-26T21:58:44;97091.09;;;23.15;49.50
13434;BME280;6789;47.678;9.158;2023-06-26T22:03:38;97088.69;;;23.00;49.61
13434;BME280;6789;47.678;9.158;2023-06-26T22:08:45;97095.38;;;22.98;48.64
13434;BME280;6789;47.678;9.158;2023-06-26T22:14:02;97088.63;;;22.87;49.29
13434;BME280;6789;47.678;9.158;2023-06-26T22:19:09;97100.56;;;22.76;49.42
13434;BME280;6789;47.678;9.158;2023-06-26T22:24:07;97088.28;;;22.75;49.10
13434;BME280;6789;47.678;9.158;2023-06-26T22:29:46;97099.94;;;22.65;49.69
13434;BME280;6789;47.678;9.158;2023-06-26T22:34:40;97091.22;;;22.60;49.62
13434;BME280;6789;47.678;9.158;2023-06-26T22:39:32;97104.63;;;22.55;50.17
13434;BME280;6789;47.678;9.158;2023-06-26T22:44:24;97098.78;;;22.53;49.99
13434;BME280;6789;47.678;9.158;2023-06-26T22:49:36;97106.94;;;22.43;49.53
13434;BME280;6789;47.678;9.158;2023-06-26T22:54:46;97115.44;;;22.26;50.02
13434;BME280;6789;47.678;9.158;2023-06-26T22:59:52;97111.44;;;22.29;49.61
13434;BME280;6789;47.678;9.158;2023-06-26T23:04:45;97114.50;;;22.18;50.21
13434;BME280;6789;47.678;9.158;2023-06-26T23:09:39;97111.38;;;22.11;49.43
13434;BME280;6789;47.678;9.158;2023-06-26T23:14:35;97112.88;;;21.98;50.14
13434;BME280;6789;47.678;9.158;2023-06-26T23:24:50;97121.19;;;21.73;50.62
13434;BME280;6789;47.678;9.158;2023-06-26T23:29:42;97132.97;;;21.72;50.29
13434;BME280;6789;47.678;9.158;2023-06-26T23:34:36;97129.03;;;21.65;50.44
13434;BME280;6789;47.678;9.158;2023-06-26T23:39:31;97134.78;;;21.54;50.45
13434;BME280;6789;47.678;9.158;2023-06-26T23:44:22;97135.00;;;21.57;50.25
13434;BME280;6789;47.678;9.158;2023-06-26T23:49:17;97138.50;;;21.52;50.29
13434;BME280;6789;47.678;9.158;2023-06-26T23:54:08;97147.31;;;21.53;50.26
13434;BME280;6789;47.678;9.158;2023-06-26T23:59:00;97142.84;;;21.44;49.95
